createdAt,value
2019-03-27T20:10:33.886Z,11.55
2019-03-27T20:13:03.633Z,8.53
2019-03-27T20:15:33.725Z,9.33
2019-03-27T20:18:04.456Z,17.35
2019-03-27T20:20:35.089Z,18.98
2019-03-27T20:23:14.391Z,20.48
2019-03-27T20:25:36.346Z,19.23
2019-03-27T20:28:06.193Z,19.75
2019-03-27T20:30:36.351Z,19.35
2019-03-27T20:33:06.196Z,19.52
2019-03-27T20:35:36.575Z,18.25
2019-03-27T20:38:06.681Z,9.75
2019-03-27T20:40:37.232Z,7.45
2019-03-27T20:43:07.812Z,5.50
2019-03-27T20:45:37.552Z,22.67
2019-03-27T20:48:09.250Z,21.70
2019-03-27T20:50:39.905Z,19.05
2019-03-27T20:53:10.622Z,17.25
2019-03-27T20:55:40.794Z,16.77
2019-03-27T20:58:10.504Z,17.02
2019-03-27T21:00:39.937Z,18.32
2019-03-27T21:03:09.708Z,18.48
2019-03-27T21:05:40.813Z,18.45
2019-03-27T21:08:10.820Z,15.10
2019-03-27T21:10:40.687Z,19.87
2019-03-27T21:13:10.969Z,22.77
2019-03-27T21:15:40.909Z,16.10
2019-03-27T21:18:11.714Z,22.20
2019-03-27T21:20:42.591Z,19.25
2019-03-27T21:23:13.124Z,17.23
2019-03-27T21:25:44.721Z,18.32
2019-03-27T21:28:14.239Z,17.37
2019-03-27T21:30:44.096Z,19.45
2019-03-27T21:33:13.865Z,18.52
2019-03-27T21:35:43.945Z,16.48
2019-03-27T21:38:14.011Z,18.55
2019-03-27T21:40:44.102Z,15.93
2019-03-27T21:43:15.450Z,15.03
2019-03-27T21:45:44.707Z,20.75
2019-03-27T21:48:14.045Z,12.40
2019-03-27T21:50:43.279Z,19.07
2019-03-27T21:53:12.543Z,20.82
2019-03-27T21:55:42.921Z,18.95
2019-03-27T21:58:12.248Z,20.80
2019-03-27T22:00:41.784Z,22.52
2019-03-27T22:03:10.981Z,21.87
2019-03-27T22:05:40.507Z,23.70
2019-03-27T22:08:10.251Z,19.55
2019-03-27T22:10:39.437Z,21.15
2019-03-27T22:13:10.325Z,21.52
2019-03-27T22:15:39.637Z,20.08
2019-03-27T22:18:08.687Z,23.30
2019-03-27T22:20:39.590Z,22.17
2019-03-27T22:23:08.911Z,22.65
2019-03-27T22:25:38.552Z,22.40
2019-03-27T22:28:07.635Z,24.25
2019-03-27T22:30:36.967Z,23.87
2019-03-27T22:33:06.121Z,22.37
2019-03-27T22:35:35.527Z,20.30
2019-03-27T22:38:04.773Z,26.57
2019-03-27T22:40:34.475Z,23.80
2019-03-27T22:43:04.046Z,21.70
2019-03-27T22:45:33.214Z,20.65
2019-03-27T22:48:03.137Z,24.12
2019-03-27T22:50:34.797Z,24.92
2019-03-27T22:53:04.429Z,26.20
2019-03-27T22:55:34.104Z,16.87
2019-03-27T22:58:03.311Z,23.47
2019-03-27T23:00:37.376Z,23.60
2019-03-27T23:03:17.702Z,22.98
2019-03-27T23:05:37.525Z,24.45
2019-03-27T23:08:06.756Z,20.92
2019-03-27T23:10:36.296Z,23.67
2019-03-27T23:13:05.423Z,24.10
2019-03-27T23:15:34.675Z,22.67
2019-03-27T23:18:04.099Z,23.92
2019-03-27T23:20:33.696Z,24.02
2019-03-27T23:23:03.790Z,30.52
2019-03-27T23:25:33.053Z,29.65
2019-03-27T23:28:02.733Z,27.00
2019-03-27T23:30:31.965Z,28.00
2019-03-27T23:33:01.121Z,27.07
2019-03-27T23:35:30.626Z,25.27
2019-03-27T23:37:59.917Z,33.67
2019-03-27T23:40:29.182Z,29.37
2019-03-27T23:42:59.027Z,20.92
2019-03-27T23:45:29.144Z,33.30
2019-03-27T23:47:58.830Z,29.05
2019-03-27T23:50:28.162Z,27.32
2019-03-27T23:52:57.734Z,26.80
2019-03-27T23:55:27.008Z,27.17
2019-03-27T23:57:56.104Z,29.77
